sensor_id;sensor_type;location;lat;lon;timestamp;pressure;altitude;pressure_sealevel;temperature;humidity
73671;BME280;61968;48.178;11.566;2023-02-01T00:01:47;96270.50;;;0.77;45.88
73671;BME280;61968;48.178;11.566;2023-02-01T00:04:15;96269.41;;;1.31;45.54
73671;BME280;61968;48.178;11.566;2023-02-01T00:06:41;96279.50;;;1.25;44.91
73671;BME280;61968;48.178;11.566;2023-02-01T00:09:08;96259.59;;;1.16;45.16
73671;BME280;61968;48.178;11.566;2023-02-01T00:11:34;96270.78;;;1.00;45.81
73671;BME280;61968;48.178;11.566;2023-02-01T00:14:00;96272.22;;;0.95;46.24
73671;BME280;61968;48.178;11.566;2023-02-01T00:16:28;96269.34;;;1.06;45.62
73671;BME280;61968;48.178;11.566;2023-02-01T00:18:57;96282.03;;;1.09;45.59
73671;BME280;61968;48.178;11.566;2023-02-01T00:21:26;96277.63;;;0.15;46.94
73671;BME280;61968;48.178;11.566;2023-02-01T00:23:53;96269.88;;;0.84;46.08
73671;BME280;61968;48.178;11.566;2023-02-01T00:26:23;96277.25;;;0.62;46.45
73671;BME280;61968;48.178;11.566;2023-02-01T00:28:51;96279.28;;;0.76;46.14
73671;BME280;61968;48.178;11.566;2023-02-01T00:31:18;96263.34;;;0.79;46.05
73671;BME280;61968;48.178;11.566;2023-02-01T00:33:46;96272.38;;;0.33;47.75
73671;BME280;61968;48.178;11.566;2023-02-01T00:36:13;96263.78;;;1.01;46.60
73671;BME280;61968;48.178;11.566;2023-02-01T00:38:41;96261.47;;;0.90;46.71
73671;BME280;61968;48.178;11.566;2023-02-01T00:41:11;96263.50;;;1.12;45.80
73671;BME280;61968;48.178;11.566;2023-02-01T00:43:38;96253.84;;;1.04;46.58
73671;BME280;61968;48.178;11.566;2023-02-01T00:46:05;96260.53;;;1.49;45.59
73671;BME280;61968;48.178;11.566;2023-02-01T00:48:31;96265.44;;;1.02;46.93
73671;BME280;61968;48.178;11.566;2023-02-01T00:50:59;96255.75;;;0.86;48.12
73671;BME280;61968;48.178;11.566;2023-02-01T00:53:25;96247.56;;;1.15;47.88
73671;BME280;61968;48.178;11.566;2023-02-01T00:55:53;96249.03;;;1.18;48.02
73671;BME280;61968;48.178;11.566;2023-02-01T00:58:19;96254.03;;;1.03;48.59
73671;BME280;61968;48.178;11.566;2023-02-01T01:00:47;96242.75;;;0.94;48.72
73671;BME280;61968;48.178;11.566;2023-02-01T01:03:14;96245.81;;;0.82;48.77
73671;BME280;61968;48.178;11.566;2023-02-01T01:05:44;96242.94;;;1.01;48.97
73671;BME280;61968;48.178;11.566;2023-02-01T01:08:10;96248.50;;;1.06;48.13
73671;BME280;61968;48.178;11.566;2023-02-01T01:10:37;96254.03;;;1.03;48.85
73671;BME280;61968;48.178;11.566;2023-02-01T01:13:04;96250.78;;;1.09;48.05
73671;BME280;61968;48.178;11.566;2023-02-01T01:15:35;96250.81;;;1.25;48.33
73671;BME280;61968;48.178;11.566;2023-02-01T01:18:02;96245.19;;;0.88;49.26
73671;BME280;61968;48.178;11.566;2023-02-01T01:20:33;96237.94;;;1.16;48.25
73671;BME280;61968;48.178;11.566;2023-02-01T01:23:00;96236.97;;;1.17;48.34
73671;BME280;61968;48.178;11.566;2023-02-01T01:25:27;96241.41;;;1.24;48.37
73671;BME280;61968;48.178;11.566;2023-02-01T01:27:53;96241.47;;;1.49;47.24
73671;BME280;61968;48.178;11.566;2023-02-01T01:30:21;96246.41;;;1.85;46.91
73671;BME280;61968;48.178;11.566;2023-02-01T01:32:48;96233.00;;;1.39;47.67
73671;BME280;61968;48.178;11.566;2023-02-01T01:35:14;96226.66;;;1.41;47.85
73671;BME280;61968;48.178;11.566;2023-02-01T01:37:40;96237.56;;;1.53;47.75
73671;BME280;61968;48.178;11.566;2023-02-01T01:40:10;96239.84;;;1.48;47.35
73671;BME280;61968;48.178;11.566;2023-02-01T01:42:37;96239.97;;;0.88;49.68
73671;BME280;61968;48.178;11.566;2023-02-01T01:45:05;96237.28;;;1.06;48.98
73671;BME280;61968;48.178;11.566;2023-02-01T01:47:37;96222.06;;;1.35;48.53
73671;BME280;61968;48.178;11.566;2023-02-01T01:50:07;96218.97;;;0.81;49.82
73671;BME280;61968;48.178;11.566;2023-02-01T01:52:34;96213.50;;;1.00;50.13
73671;BME280;61968;48.178;11.566;2023-02-01T01:55:01;96207.69;;;0.38;51.72
73671;BME280;61968;48.178;11.566;2023-02-01T01:57:32;96202.66;;;0.37;52.12
73671;BME280;61968;48.178;11.566;2023-02-01T02:00:03;96194.06;;;0.44;51.95
73671;BME280;61968;48.178;11.566;2023-02-01T02:02:32;96203.25;;;1.07;50.25
73671;BME280;61968;48.178;11.566;2023-02-01T02:05:00;96201.72;;;0.88;50.67
73671;BME280;61968;48.178;11.566;2023-02-01T02:07:30;96194.53;;;1.41;49.32
73671;BME280;61968;48.178;11.566;2023-02-01T02:09:58;96192.88;;;1.32;49.02
73671;BME280;61968;48.178;11.566;2023-02-01T02:12:24;96201.13;;;1.02;50.76
73671;BME280;61968;48.178;11.566;2023-02-01T02:14:51;96191.66;;;1.01;50.36
73671;BME280;61968;48.178;11.566;2023-02-01T02:17:24;96200.75;;;0.81;51.18
73671;BME280;61968;48.178;11.566;2023-02-01T02:20:27;96199.97;;;0.97;50.57
73671;BME280;61968;48.178;11.566;2023-02-01T02:23:18;96209.66;;;1.21;50.03
73671;BME280;61968;48.178;11.566;2023-02-01T02:29:28;96227.19;;;1.11;50.67
73671;BME280;61968;48.178;11.566;2023-02-01T02:34:55;96220.09;;;0.78;51.33
73671;BME280;61968;48.178;11.566;2023-02-01T02:37:29;96221.25;;;0.84;51.53
73671;BME280;61968;48.178;11.566;2023-02-01T02:40:04;96218.56;;;1.02;50.80
73671;BME280;61968;48.178;11.566;2023-02-01T02:42:39;96218.69;;;1.00;50.97
73671;BME280;61968;48.178;11.566;2023-02-01T02:45:29;96213.50;;;1.00;51.02
73671;BME280;61968;48.178;11.566;2023-02-01T02:48:19;96208.09;;;0.94;50.43
73671;BME280;61968;48.178;11.566;2023-02-01T02:50:51;96210.34;;;0.89;51.53
73671;BME280;61968;48.178;11.566;2023-02-01T02:53:41;96205.88;;;1.15;49.88
73671;BME280;61968;48.178;11.566;2023-02-01T02:56:39;96203.44;;;0.71;52.01
73671;BME280;61968;48.178;11.566;2023-02-01T02:59:25;96193.78;;;0.98;51.51
73671;BME280;61968;48.178;11.566;2023-02-01T03:02:11;96197.69;;;0.94;50.58
73671;BME280;61968;48.178;11.566;2023-02-01T03:04:56;96194.66;;;1.31;50.65
73671;BME280;61968;48.178;11.566;2023-02-01T03:10:40;96180.09;;;0.45;52.26
73671;BME280;61968;48.178;11.566;2023-02-01T03:13:11;96182.25;;;1.00;50.94
73671;BME280;61968;48.178;11.566;2023-02-01T03:15:41;96174.84;;;0.79;50.69
73671;BME280;61968;48.178;11.566;2023-02-01T03:18:13;96181.00;;;0.70;50.96
73671;BME280;61968;48.178;11.566;2023-02-01T03:20:44;96170.69;;;1.03;50.69
73671;BME280;61968;48.178;11.566;2023-02-01T03:23:13;96178.56;;;1.27;49.70
73671;BME280;61968;48.178;11.566;2023-02-01T03:25:43;96174.97;;;1.20;50.14
73671;BME280;61968;48.178;11.566;2023-02-01T03:28:11;96167.84;;;1.39;49.40
73671;BME280;61968;48.178;11.566;2023-02-01T03:30:40;96171.78;;;1.84;48.14
73671;BME280;61968;48.178;11.566;2023-02-01T03:33:10;96174.88;;;1.55;47.90
73671;BME280;61968;48.178;11.566;2023-02-01T03:35:52;96174.69;;;1.56;48.29
73671;BME280;61968;48.178;11.566;2023-02-01T03:38:23;96161.84;;;1.63;48.67
73671;BME280;61968;48.178;11.566;2023-02-01T03:40:56;96171.75;;;1.59;48.23
73671;BME280;61968;48.178;11.566;2023-02-01T03:43:27;96165.47;;;0.95;49.68
73671;BME280;61968;48.178;11.566;2023-02-01T03:46:00;96159.03;;;1.23;49.51
73671;BME280;61968;48.178;11.566;2023-02-01T03:48:28;96156.41;;;1.15;49.39
73671;BME280;61968;48.178;11.566;2023-02-01T03:50:58;96163.53;;;1.13;49.03
73671;BME280;61968;48.178;11.566;2023-02-01T03:53:26;96153.91;;;0.47;51.40
73671;BME280;61968;48.178;11.566;2023-02-01T03:55:55;96156.19;;;0.42;51.01
73671;BME280;61968;48.178;11.566;2023-02-01T03:58:23;96155.34;;;0.75;50.22
73671;BME280;61968;48.178;11.566;2023-02-01T04:00:51;96167.91;;;0.96;50.15
73671;BME280;61968;48.178;11.566;2023-02-01T04:03:19;96155.28;;;0.67;49.99
73671;BME280;61968;48.178;11.566;2023-02-01T04:05:46;96155.69;;;0.89;49.39
73671;BME280;61968;48.178;11.566;2023-02-01T04:08:13;96145.66;;;0.17;51.41
73671;BME280;61968;48.178;11.566;2023-02-01T04:10:39;96149.75;;;-0.06;52.38
73671;BME280;61968;48.178;11.566;2023-02-01T04:13:08;96151.28;;;0.89;50.19
73671;BME280;61968;48.178;11.566;2023-02-01T04:15:34;96151.66;;;1.11;49.48
73671;BME280;61968;48.178;11.566;2023-02-01T04:18:01;96163.81;;;0.43;50.89
73671;BME280;61968;48.178;11.566;2023-02-01T04:20:28;96154.31;;;0.60;50.89
73671;BME280;61968;48.178;11.566;2023-02-01T04:22:54;96155.38;;;1.00;49.65
73671;BME280;61968;48.178;11.566;2023-02-01T04:25:21;96149.63;;;0.80;49.99
73671;BME280;61968;48.178;11.566;2023-02-01T04:27:47;96141.88;;;0.46;50.66
73671;BME280;61968;48.178;11.566;2023-02-01T04:30:16;96146.31;;;1.12;48.95
73671;BME280;61968;48.178;11.566;2023-02-01T04:32:42;96131.66;;;1.11;49.08
73671;BME280;61968;48.178;11.566;2023-02-01T04:35:09;96135.25;;;1.26;48.73
73671;BME280;61968;48.178;11.566;2023-02-01T04:37:37;96130.88;;;0.68;49.23
73671;BME280;61968;48.178;11.566;2023-02-01T04:40:04;96141.19;;;0.86;49.23
73671;BME280;61968;48.178;11.566;2023-02-01T04:42:31;96150.25;;;0.74;49.73
73671;BME280;61968;48.178;11.566;2023-02-01T04:44:57;96146.47;;;1.27;48.21
73671;BME280;61968;48.178;11.566;2023-02-01T04:47:25;96145.56;;;0.77;49.19
73671;BME280;61968;48.178;11.566;2023-02-01T04:49:52;96145.41;;;0.79;49.21
73671;BME280;61968;48.178;11.566;2023-02-01T04:52:18;96150.84;;;1.10;48.52
73671;BME280;61968;48.178;11.566;2023-02-01T04:54:44;96152.16;;;1.22;48.83
73671;BME280;61968;48.178;11.566;2023-02-01T04:57:11;96142.31;;;0.75;49.51
73671;BME280;61968;48.178;11.566;2023-02-01T04:59:38;96146.13;;;1.14;48.23
73671;BME280;61968;48.178;11.566;2023-02-01T05:02:05;96142.53;;;1.07;48.31
73671;BME280;61968;48.178;11.566;2023-02-01T05:04:33;96152.91;;;0.40;50.10
73671;BME280;61968;48.178;11.566;2023-02-01T05:06:59;96157.56;;;0.02;51.12
73671;BME280;61968;48.178;11.566;2023-02-01T05:09:26;96152.53;;;1.77;65.62
73671;BME280;61968;48.178;11.566;2023-02-01T05:11:52;96139.84;;;2.77;50.18
73671;BME280;61968;48.178;11.566;2023-02-01T05:14:36;96149.44;;;2.53;49.33
73671;BME280;61968;48.178;11.566;2023-02-01T05:17:03;96154.88;;;2.75;45.39
73671;BME280;61968;48.178;11.566;2023-02-01T05:19:29;96144.66;;;2.17;44.89
73671;BME280;61968;48.178;11.566;2023-02-01T05:21:57;96154.47;;;1.91;45.79
73671;BME280;61968;48.178;11.566;2023-02-01T05:24:23;96156.41;;;1.15;47.28
73671;BME280;61968;48.178;11.566;2023-02-01T05:26:52;96164.44;;;1.55;47.75
73671;BME280;61968;48.178;11.566;2023-02-01T05:29:19;96167.69;;;1.48;47.11
73671;BME280;61968;48.178;11.566;2023-02-01T05:32:21;96170.72;;;1.19;47.48
73671;BME280;61968;48.178;11.566;2023-02-01T05:34:48;96172.09;;;1.40;47.65
73671;BME280;61968;48.178;11.566;2023-02-01T05:37:15;96162.97;;;1.60;46.54
73671;BME280;61968;48.178;11.566;2023-02-01T05:39:42;96162.47;;;0.73;48.16
73671;BME280;61968;48.178;11.566;2023-02-01T05:42:08;96167.31;;;0.68;49.36
73671;BME280;61968;48.178;11.566;2023-02-01T05:44:35;96149.66;;;0.88;48.60
73671;BME280;61968;48.178;11.566;2023-02-01T05:47:01;96147.16;;;0.70;48.86
73671;BME280;61968;48.178;11.566;2023-02-01T05:49:28;96155.75;;;1.05;48.54
73671;BME280;61968;48.178;11.566;2023-02-01T05:51:54;96155.09;;;1.19;47.91
73671;BME280;61968;48.178;11.566;2023-02-01T05:54:22;96159.97;;;1.06;48.59
73671;BME280;61968;48.178;11.566;2023-02-01T05:56:48;96146.34;;;1.53;47.57
73671;BME280;61968;48.178;11.566;2023-02-01T05:59:15;96153.22;;;1.62;46.17
73671;BME280;61968;48.178;11.566;2023-02-01T06:01:41;96152.69;;;1.26;47.24
73671;BME280;61968;48.178;11.566;2023-02-01T06:04:08;96145.94;;;0.91;47.91
73671;BME280;61968;48.178;11.566;2023-02-01T06:06:34;96149.56;;;1.22;48.54
73671;BME280;61968;48.178;11.566;2023-02-01T06:09:02;96125.50;;;1.53;47.52
73671;BME280;61968;48.178;11.566;2023-02-01T06:11:30;96128.72;;;1.88;45.58
73671;BME280;61968;48.178;11.566;2023-02-01T06:13:56;96139.78;;;1.16;48.39
73671;BME280;61968;48.178;11.566;2023-02-01T06:16:23;96131.28;;;0.98;47.89
73671;BME280;61968;48.178;11.566;2023-02-01T06:18:49;96126.66;;;1.51;47.00
73671;BME280;61968;48.178;11.566;2023-02-01T06:21:16;96125.09;;;0.91;48.88
73671;BME280;61968;48.178;11.566;2023-02-01T06:23:48;96134.75;;;1.15;47.78
73671;BME280;61968;48.178;11.566;2023-02-01T06:26:15;96127.75;;;1.15;47.74
73671;BME280;61968;48.178;11.566;2023-02-01T06:28:43;96127.25;;;0.10;50.01
73671;BME280;61968;48.178;11.566;2023-02-01T06:31:10;96140.66;;;0.74;48.72
73671;BME280;61968;48.178;11.566;2023-02-01T06:33:37;96136.72;;;0.62;49.34
73671;BME280;61968;48.178;11.566;2023-02-01T06:36:05;96125.31;;;1.06;48.15
73671;BME280;61968;48.178;11.566;2023-02-01T06:38:33;96130.66;;;1.12;48.35
73671;BME280;61968;48.178;11.566;2023-02-01T06:41:00;96132.34;;;1.46;46.98
73671;BME280;61968;48.178;11.566;2023-02-01T06:43:27;96136.00;;;0.94;48.19
73671;BME280;61968;48.178;11.566;2023-02-01T06:45:59;96143.31;;;0.83;48.48
73671;BME280;61968;48.178;11.566;2023-02-01T06:48:25;96138.00;;;1.09;47.67
73671;BME280;61968;48.178;11.566;2023-02-01T06:50:52;96130.88;;;1.43;46.87
73671;BME280;61968;48.178;11.566;2023-02-01T06:53:18;96133.50;;;1.52;46.24
73671;BME280;61968;48.178;11.566;2023-02-01T06:55:51;96126.47;;;1.36;47.41
73671;BME280;61968;48.178;11.566;2023-02-01T06:58:18;96114.91;;;1.30;47.23
73671;BME280;61968;48.178;11.566;2023-02-01T07:00:44;96129.56;;;1.23;47.19
73671;BME280;61968;48.178;11.566;2023-02-01T07:03:12;96128.38;;;0.93;47.56
73671;BME280;61968;48.178;11.566;2023-02-01T07:05:38;96116.34;;;1.16;47.38
73671;BME280;61968;48.178;11.566;2023-02-01T07:08:05;96108.88;;;1.30;46.93
73671;BME280;61968;48.178;11.566;2023-02-01T07:10:31;96131.81;;;1.34;46.89
73671;BME280;61968;48.178;11.566;2023-02-01T07:12:58;96124.75;;;0.86;48.38
73671;BME280;61968;48.178;11.566;2023-02-01T07:15:24;96127.22;;;0.87;48.67
73671;BME280;61968;48.178;11.566;2023-02-01T07:17:52;96138.16;;;1.07;48.00
73671;BME280;61968;48.178;11.566;2023-02-01T07:20:21;96121.34;;;0.85;47.63
73671;BME280;61968;48.178;11.566;2023-02-01T07:22:48;96117.81;;;1.19;47.55
73671;BME280;61968;48.178;11.566;2023-02-01T07:25:14;96092.59;;;1.44;47.27
73671;BME280;61968;48.178;11.566;2023-02-01T07:27:41;96113.09;;;0.39;49.24
73671;BME280;61968;48.178;11.566;2023-02-01T07:30:08;96104.63;;;1.12;48.15
73671;BME280;61968;48.178;11.566;2023-02-01T07:32:36;96097.63;;;1.37;46.66
73671;BME280;61968;48.178;11.566;2023-02-01T07:35:03;96106.13;;;1.23;47.64
73671;BME280;61968;48.178;11.566;2023-02-01T07:37:31;96116.97;;;1.10;46.58
73671;BME280;61968;48.178;11.566;2023-02-01T07:39:57;96112.13;;;1.15;47.38
73671;BME280;61968;48.178;11.566;2023-02-01T07:42:24;96104.75;;;0.94;47.36
73671;BME280;61968;48.178;11.566;2023-02-01T07:44:50;96113.88;;;0.98;47.43
73671;BME280;61968;48.178;11.566;2023-02-01T07:47:17;96110.47;;;0.90;47.82
73671;BME280;61968;48.178;11.566;2023-02-01T07:49:43;96115.78;;;0.72;48.11
73671;BME280;61968;48.178;11.566;2023-02-01T07:52:09;96106.44;;;0.53;48.88
73671;BME280;61968;48.178;11.566;2023-02-01T07:54:39;96106.84;;;0.83;47.91
73671;BME280;61968;48.178;11.566;2023-02-01T07:57:06;96119.84;;;0.66;48.13
73671;BME280;61968;48.178;11.566;2023-02-01T07:59:33;96129.28;;;0.67;48.20
73671;BME280;61968;48.178;11.566;2023-02-01T08:02:00;96134.00;;;1.39;47.08
73671;BME280;61968;48.178;11.566;2023-02-01T08:04:26;96143.06;;;1.18;47.17
73671;BME280;61968;48.178;11.566;2023-02-01T08:06:54;96131.63;;;0.95;47.05
73671;BME280;61968;48.178;11.566;2023-02-01T08:09:20;96148.69;;;0.81;47.77
73671;BME280;61968;48.178;11.566;2023-02-01T08:11:48;96156.16;;;0.84;47.66
73671;BME280;61968;48.178;11.566;2023-02-01T08:14:15;96154.25;;;1.02;47.32
73671;BME280;61968;48.178;11.566;2023-02-01T08:16:41;96158.72;;;1.43;46.49
73671;BME280;61968;48.178;11.566;2023-02-01T08:19:08;96157.72;;;1.27;46.46
73671;BME280;61968;48.178;11.566;2023-02-01T08:21:37;96149.28;;;1.58;45.47
73671;BME280;61968;48.178;11.566;2023-02-01T08:24:05;96157.69;;;1.11;46.10
73671;BME280;61968;48.178;11.566;2023-02-01T08:26:32;96163.22;;;1.16;46.67
73671;BME280;61968;48.178;11.566;2023-02-01T08:29:03;96170.13;;;1.42;45.78
73671;BME280;61968;48.178;11.566;2023-02-01T08:31:30;96171.72;;;1.35;45.51
73671;BME280;61968;48.178;11.566;2023-02-01T08:33:58;96171.22;;;1.31;45.86
73671;BME280;61968;48.178;11.566;2023-02-01T08:36:26;96164.63;;;0.78;46.25
73671;BME280;61968;48.178;11.566;2023-02-01T08:38:53;96173.00;;;1.14;45.90
73671;BME280;61968;48.178;11.566;2023-02-01T08:41:21;96166.34;;;1.28;45.48
73671;BME280;61968;48.178;11.566;2023-02-01T08:43:48;96161.41;;;1.00;46.14
73671;BME280;61968;48.178;11.566;2023-02-01T08:46:16;96157.34;;;1.06;45.16
73671;BME280;61968;48.178;11.566;2023-02-01T08:48:44;96166.41;;;0.86;46.66
73671;BME280;61968;48.178;11.566;2023-02-01T08:51:13;96160.78;;;1.15;45.38
73671;BME280;61968;48.178;11.566;2023-02-01T08:53:40;96147.19;;;1.54;45.44
73671;BME280;61968;48.178;11.566;2023-02-01T08:56:08;96161.22;;;0.86;45.80
73671;BME280;61968;48.178;11.566;2023-02-01T08:58:35;96155.44;;;1.33;45.36
73671;BME280;61968;48.178;11.566;2023-02-01T09:01:03;96149.06;;;1.02;45.35
73671;BME280;61968;48.178;11.566;2023-02-01T09:03:31;96138.53;;;1.61;44.93
73671;BME280;61968;48.178;11.566;2023-02-01T09:06:01;96150.59;;;1.79;44.28
73671;BME280;61968;48.178;11.566;2023-02-01T09:08:27;96150.72;;;1.77;43.88
73671;BME280;61968;48.178;11.566;2023-02-01T09:11:05;96172.03;;;1.23;45.43
73671;BME280;61968;48.178;11.566;2023-02-01T09:13:32;96167.31;;;1.19;45.77
73671;BME280;61968;48.178;11.566;2023-02-01T09:16:00;96166.97;;;1.06;45.10
73671;BME280;61968;48.178;11.566;2023-02-01T09:18:27;96143.91;;;1.52;44.29
73671;BME280;61968;48.178;11.566;2023-02-01T09:20:54;96162.22;;;0.93;45.10
73671;BME280;61968;48.178;11.566;2023-02-01T09:23:21;96161.28;;;1.18;44.84
73671;BME280;61968;48.178;11.566;2023-02-01T09:25:47;96152.81;;;1.08;45.25
73671;BME280;61968;48.178;11.566;2023-02-01T09:28:15;96150.53;;;1.13;45.74
73671;BME280;61968;48.178;11.566;2023-02-01T09:30:42;96143.59;;;1.63;43.95
73671;BME280;61968;48.178;11.566;2023-02-01T09:33:08;96156.75;;;1.20;45.49
73671;BME280;61968;48.178;11.566;2023-02-01T09:35:35;96153.16;;;1.38;45.10
73671;BME280;61968;48.178;11.566;2023-02-01T09:38:04;96161.19;;;1.44;45.26
73671;BME280;61968;48.178;11.566;2023-02-01T09:40:33;96153.94;;;1.14;45.75
73671;BME280;61968;48.178;11.566;2023-02-01T09:43:22;96175.16;;;1.35;45.29
73671;BME280;61968;48.178;11.566;2023-02-01T09:45:59;96167.25;;;0.94;45.46
73671;BME280;61968;48.178;11.566;2023-02-01T09:48:32;96165.09;;;1.81;44.45
73671;BME280;61968;48.178;11.566;2023-02-01T09:51:04;96173.34;;;1.27;45.20
73671;BME280;61968;48.178;11.566;2023-02-01T09:53:35;96169.16;;;1.84;44.83
73671;BME280;61968;48.178;11.566;2023-02-01T09:56:06;96169.94;;;1.35;44.45
73671;BME280;61968;48.178;11.566;2023-02-01T09:58:36;96170.78;;;1.85;44.28
73671;BME280;61968;48.178;11.566;2023-02-01T10:01:09;96192.47;;;1.69;45.00
73671;BME280;61968;48.178;11.566;2023-02-01T10:03:38;96198.38;;;1.12;45.94
73671;BME280;61968;48.178;11.566;2023-02-01T10:06:07;96192.31;;;1.62;44.79
73671;BME280;61968;48.178;11.566;2023-02-01T10:11:41;96176.66;;;1.87;44.56
73671;BME280;61968;48.178;11.566;2023-02-01T10:14:37;96186.59;;;2.00;43.91
73671;BME280;61968;48.178;11.566;2023-02-01T10:17:20;96191.28;;;2.21;43.54
73671;BME280;61968;48.178;11.566;2023-02-01T10:19:59;96184.44;;;2.03;43.77
73671;BME280;61968;48.178;11.566;2023-02-01T10:22:36;96196.50;;;2.12;43.03
73671;BME280;61968;48.178;11.566;2023-02-01T10:25:14;96201.06;;;2.18;43.47
73671;BME280;61968;48.178;11.566;2023-02-01T10:27:44;96196.19;;;2.07;43.15
73671;BME280;61968;48.178;11.566;2023-02-01T10:30:18;96192.28;;;2.11;43.42
73671;BME280;61968;48.178;11.566;2023-02-01T10:32:47;96201.72;;;2.04;44.06
73671;BME280;61968;48.178;11.566;2023-02-01T10:35:18;96204.03;;;1.75;45.20
73671;BME280;61968;48.178;11.566;2023-02-01T10:37:45;96208.75;;;1.79;44.64
73671;BME280;61968;48.178;11.566;2023-02-01T10:40:23;96210.06;;;1.51;45.67
73671;BME280;61968;48.178;11.566;2023-02-01T10:42:51;96216.66;;;1.37;45.75
73671;BME280;61968;48.178;11.566;2023-02-01T10:45:21;96199.47;;;1.68;45.29
73671;BME280;61968;48.178;11.566;2023-02-01T10:47:50;96211.38;;;1.04;45.90
73671;BME280;61968;48.178;11.566;2023-02-01T10:50:28;96198.50;;;1.69;45.17
73671;BME280;61968;48.178;11.566;2023-02-01T10:53:01;96193.56;;;2.07;44.08
73671;BME280;61968;48.178;11.566;2023-02-01T10:55:37;96195.50;;;2.22;43.89
73671;BME280;61968;48.178;11.566;2023-02-01T10:58:06;96200.75;;;1.89;44.50
73671;BME280;61968;48.178;11.566;2023-02-01T11:00:41;96202.38;;;1.98;43.91
73671;BME280;61968;48.178;11.566;2023-02-01T11:03:39;96214.34;;;1.25;45.96
73671;BME280;61968;48.178;11.566;2023-02-01T11:06:13;96213.41;;;1.35;45.65
73671;BME280;61968;48.178;11.566;2023-02-01T11:08:45;96210.88;;;1.67;44.90
73671;BME280;61968;48.178;11.566;2023-02-01T11:11:14;96217.06;;;1.58;45.19
73671;BME280;61968;48.178;11.566;2023-02-01T11:13:41;96222.75;;;1.86;44.38
73671;BME280;61968;48.178;11.566;2023-02-01T11:16:12;96207.94;;;1.95;44.35
73671;BME280;61968;48.178;11.566;2023-02-01T11:18:40;96215.91;;;1.77;44.53
73671;BME280;61968;48.178;11.566;2023-02-01T11:21:09;96213.31;;;1.77;44.68
73671;BME280;61968;48.178;11.566;2023-02-01T11:23:40;96221.28;;;1.67;45.14
73671;BME280;61968;48.178;11.566;2023-02-01T11:26:11;96206.47;;;1.92;44.84
73671;BME280;61968;48.178;11.566;2023-02-01T11:28:41;96221.66;;;1.81;44.45
73671;BME280;61968;48.178;11.566;2023-02-01T11:31:12;96207.94;;;2.03;43.88
73671;BME280;61968;48.178;11.566;2023-02-01T11:33:46;96205.16;;;1.88;44.13
73671;BME280;61968;48.178;11.566;2023-02-01T11:36:16;96208.09;;;1.44;45.36
73671;BME280;61968;48.178;11.566;2023-02-01T11:38:46;96213.00;;;1.72;45.65
73671;BME280;61968;48.178;11.566;2023-02-01T11:41:21;96217.06;;;1.66;45.41
73671;BME280;61968;48.178;11.566;2023-02-01T11:43:55;96210.03;;;2.16;44.15
73671;BME280;61968;48.178;11.566;2023-02-01T11:46:24;96193.09;;;1.79;44.84
73671;BME280;61968;48.178;11.566;2023-02-01T11:48:54;96202.38;;;1.98;43.89
73671;BME280;61968;48.178;11.566;2023-02-01T11:54:31;96199.88;;;1.31;46.32
73671;BME280;61968;48.178;11.566;2023-02-01T11:57:24;96186.44;;;1.60;45.63
73671;BME280;61968;48.178;11.566;2023-02-01T12:00:15;96193.63;;;1.08;46.71
73671;BME280;61968;48.178;11.566;2023-02-01T12:03:07;96177.63;;;1.69;45.29
73671;BME280;61968;48.178;11.566;2023-02-01T12:05:47;96179.03;;;2.21;45.07
73671;BME280;61968;48.178;11.566;2023-02-01T12:08:26;96184.75;;;1.35;46.13
73671;BME280;61968;48.178;11.566;2023-02-01T12:11:11;96185.03;;;0.99;46.61
73671;BME280;61968;48.178;11.566;2023-02-01T12:13:53;96182.09;;;1.10;46.94
73671;BME280;61968;48.178;11.566;2023-02-01T12:16:31;96182.41;;;1.07;47.21
73671;BME280;61968;48.178;11.566;2023-02-01T12:19:22;96183.34;;;1.57;46.01
73671;BME280;61968;48.178;11.566;2023-02-01T12:21:59;96164.81;;;0.93;47.13
73671;BME280;61968;48.178;11.566;2023-02-01T12:25:03;96175.66;;;1.47;45.82
73671;BME280;61968;48.178;11.566;2023-02-01T12:27:44;96170.03;;;1.01;47.02
73671;BME280;61968;48.178;11.566;2023-02-01T12:33:24;96177.28;;;1.40;46.16
73671;BME280;61968;48.178;11.566;2023-02-01T12:36:03;96168.00;;;1.29;46.01
73671;BME280;61968;48.178;11.566;2023-02-01T12:38:57;96191.88;;;1.16;46.16
73671;BME280;61968;48.178;11.566;2023-02-01T12:41:55;96181.22;;;1.68;45.44
73671;BME280;61968;48.178;11.566;2023-02-01T12:44:32;96170.09;;;1.34;46.04
73671;BME280;61968;48.178;11.566;2023-02-01T12:47:05;96161.34;;;1.76;44.67
73671;BME280;61968;48.178;11.566;2023-02-01T12:49:45;96153.13;;;1.13;45.64
73671;BME280;61968;48.178;11.566;2023-02-01T12:52:16;96159.06;;;1.48;45.83
73671;BME280;61968;48.178;11.566;2023-02-01T12:54:48;96148.19;;;2.80;68.59
73671;BME280;61968;48.178;11.566;2023-02-01T12:57:19;96137.53;;;4.86;53.75
73671;BME280;61968;48.178;11.566;2023-02-01T12:59:52;96134.69;;;4.36;40.11
73671;BME280;61968;48.178;11.566;2023-02-01T13:02:25;96137.16;;;3.85;40.15
73671;BME280;61968;48.178;11.566;2023-02-01T13:04:59;96134.63;;;2.77;42.52
73671;BME280;61968;48.178;11.566;2023-02-01T13:07:32;96129.59;;;2.28;43.02
73671;BME280;61968;48.178;11.566;2023-02-01T13:10:03;96130.25;;;2.38;42.27
73671;BME280;61968;48.178;11.566;2023-02-01T13:12:36;96122.31;;;2.15;42.92
73671;BME280;61968;48.178;11.566;2023-02-01T13:15:05;96119.97;;;2.68;42.34
73671;BME280;61968;48.178;11.566;2023-02-01T13:17:38;96115.50;;;2.84;42.76
73671;BME280;61968;48.178;11.566;2023-02-01T13:20:17;96127.59;;;1.82;43.02
73671;BME280;61968;48.178;11.566;2023-02-01T13:22:47;96131.09;;;2.22;43.63
73671;BME280;61968;48.178;11.566;2023-02-01T13:25:19;96127.09;;;2.51;43.15
73671;BME280;61968;48.178;11.566;2023-02-01T13:27:53;96125.19;;;2.68;42.96
73671;BME280;61968;48.178;11.566;2023-02-01T13:30:23;96134.44;;;2.86;42.03
73671;BME280;61968;48.178;11.566;2023-02-01T13:33:07;96132.06;;;2.29;42.79
73671;BME280;61968;48.178;11.566;2023-02-01T13:35:53;96112.56;;;2.01;44.19
73671;BME280;61968;48.178;11.566;2023-02-01T13:38:39;96120.56;;;1.99;44.85